createdAt,value
2023-02-27T00:01:46.921Z,95039.39
2023-02-27T00:04:15.369Z,95041.35
2023-02-27T00:23:46.520Z,95036.13
2023-02-27T00:26:14.684Z,95039.46
2023-02-27T00:28:42.813Z,95037.60
2023-02-27T00:31:11.243Z,95037.49
2023-02-27T00:33:39.514Z,95036.02
2023-02-27T00:36:10.865Z,95034.98
2023-02-27T00:38:39.138Z,95035.36
2023-02-27T00:41:07.321Z,95033.49
2023-02-27T00:43:35.833Z,95038.91
2023-02-27T00:46:04.170Z,95043.98
2023-02-27T00:48:32.982Z,95047.16
2023-02-27T00:51:03.091Z,95043.95
2023-02-27T00:53:31.246Z,95041.58
2023-02-27T00:55:59.229Z,95042.89
2023-02-27T00:58:27.614Z,95043.00
2023-02-27T01:00:56.251Z,95039.77
2023-02-27T01:03:24.450Z,95044.86
2023-02-27T01:05:53.363Z,95043.92
2023-02-27T01:08:21.614Z,95047.30
2023-02-27T01:10:49.795Z,95051.05
2023-02-27T01:13:18.179Z,95051.31
2023-02-27T01:15:46.583Z,95049.88
2023-02-27T01:18:14.722Z,95049.83
2023-02-27T01:20:43.102Z,95049.59
2023-02-27T01:23:14.552Z,95053.02
2023-02-27T01:25:44.065Z,95053.34
2023-02-27T01:28:12.230Z,95050.89
2023-02-27T01:30:42.195Z,95051.23
2023-02-27T01:33:10.655Z,95046.59
2023-02-27T01:35:41.570Z,95053.20
2023-02-27T01:38:10.578Z,95056.19
2023-02-27T01:40:41.273Z,95056.61
2023-02-27T01:43:18.313Z,95056.89
2023-02-27T01:45:48.893Z,95052.36
2023-02-27T01:48:23.280Z,95054.52
2023-02-27T01:51:05.487Z,95058.23
2023-02-27T01:53:37.602Z,95060.21
2023-02-27T01:56:11.620Z,95062.61
2023-02-27T01:58:40.702Z,95067.89
2023-02-27T02:28:19.139Z,95072.42
2023-02-27T02:31:15.721Z,95078.89
2023-02-27T02:34:13.817Z,95082.75
2023-02-27T02:37:19.452Z,95081.61
2023-02-27T02:39:47.523Z,95086.06
2023-02-27T02:42:40.275Z,95088.77
2023-02-27T02:45:23.396Z,95089.82
2023-02-27T02:47:54.529Z,95089.48
2023-02-27T02:50:48.929Z,95089.16
2023-02-27T02:53:37.759Z,95097.52
2023-02-27T02:56:13.530Z,95099.79
2023-02-27T02:58:50.719Z,95099.33
2023-02-27T03:01:32.782Z,95105.33
2023-02-27T03:04:22.519Z,95109.71
2023-02-27T03:06:58.604Z,95113.69
2023-02-27T03:09:33.769Z,95116.14
2023-02-27T03:12:06.224Z,95117.85
2023-02-27T03:14:49.620Z,95122.24
2023-02-27T03:17:38.596Z,95132.34
2023-02-27T03:20:11.516Z,95135.52
2023-02-27T03:22:44.731Z,95138.06
2023-02-27T03:25:15.327Z,95141.45
2023-02-27T03:28:10.674Z,95141.00
2023-02-27T03:30:51.290Z,95149.35
2023-02-27T03:33:29.286Z,95149.40
2023-02-27T03:36:12.121Z,95149.46
2023-02-27T03:39:21.908Z,95154.02
2023-02-27T03:42:09.113Z,95159.42
2023-02-27T03:45:08.534Z,95164.31
2023-02-27T03:47:37.109Z,95169.41
2023-02-27T03:50:06.101Z,95173.09
2023-02-27T03:52:34.475Z,95175.42
2023-02-27T03:55:19.226Z,95177.81
2023-02-27T03:57:50.040Z,95182.60
2023-02-27T04:00:21.851Z,95186.85
2023-02-27T04:02:53.310Z,95189.10
2023-02-27T04:05:24.843Z,95191.39
2023-02-27T04:08:16.458Z,95191.21
2023-02-27T04:10:57.469Z,95194.90
2023-02-27T04:13:43.224Z,95195.96
2023-02-27T04:16:32.520Z,95201.39
2023-02-27T04:19:22.260Z,95199.75
2023-02-27T04:22:08.879Z,95198.89
2023-02-27T04:25:01.932Z,95202.67
2023-02-27T04:27:59.383Z,95201.66
2023-02-27T04:30:38.933Z,95203.30
2023-02-27T04:33:09.687Z,95207.39
2023-02-27T04:35:54.782Z,95211.17
2023-02-27T04:38:32.434Z,95210.17
2023-02-27T04:41:10.132Z,95210.56
2023-02-27T04:43:40.865Z,95218.05
2023-02-27T04:46:13.261Z,95216.04
2023-02-27T04:48:49.604Z,95214.90
2023-02-27T04:51:23.201Z,95216.24
2023-02-27T04:53:59.875Z,95218.50
2023-02-27T04:56:33.081Z,95223.83
2023-02-27T04:59:20.485Z,95223.34
2023-02-27T05:01:57.479Z,95229.95
2023-02-27T05:04:30.000Z,95237.83
2023-02-27T05:07:01.288Z,95240.64
2023-02-27T05:09:48.412Z,95245.48
2023-02-27T05:12:29.284Z,95249.03
2023-02-27T05:15:38.818Z,95243.63
2023-02-27T05:18:15.212Z,95243.95
2023-02-27T05:21:16.131Z,95252.20
2023-02-27T05:24:08.660Z,95261.42
2023-02-27T05:27:01.537Z,95262.23
2023-02-27T05:42:32.468Z,95275.13
2023-02-27T05:45:07.818Z,95282.63
2023-02-27T05:47:41.201Z,95287.90
2023-02-27T05:50:13.975Z,95293.78
2023-02-27T05:52:43.488Z,95299.77
2023-02-27T05:55:24.254Z,95303.29
2023-02-27T05:58:19.893Z,95306.33
2023-02-27T06:00:52.464Z,95313.17
2023-02-27T06:03:21.396Z,95316.88
2023-02-27T06:05:55.022Z,95318.52
2023-02-27T06:08:23.343Z,95320.72
2023-02-27T06:10:52.106Z,95327.83
2023-02-27T06:13:20.280Z,95333.51
2023-02-27T06:15:49.524Z,95338.24
2023-02-27T06:18:18.754Z,95340.19
2023-02-27T06:20:48.297Z,95343.31
2023-02-27T06:23:17.317Z,95343.63
2023-02-27T06:25:45.865Z,95351.07
2023-02-27T06:28:14.038Z,95359.52
2023-02-27T06:30:42.166Z,95363.08
2023-02-27T06:33:10.734Z,95366.13
2023-02-27T06:35:38.978Z,95367.08
2023-02-27T06:38:07.359Z,95377.06
2023-02-27T06:40:35.606Z,95381.52
2023-02-27T06:43:03.689Z,95386.14
2023-02-27T06:45:31.862Z,95388.25
2023-02-27T06:48:00.340Z,95392.98
2023-02-27T06:50:28.819Z,95397.18
2023-02-27T06:52:57.048Z,95396.19
2023-02-27T06:55:26.000Z,95399.02
2023-02-27T07:11:34.433Z,95408.59
2023-02-27T07:14:02.569Z,95416.30
2023-02-27T07:16:30.620Z,95416.57
2023-02-27T07:18:59.101Z,95419.11
2023-02-27T07:21:27.617Z,95420.36
2023-02-27T07:38:14.763Z,95415.73
2023-02-27T07:40:43.179Z,95424.08
2023-02-27T07:43:11.429Z,95430.08
2023-02-27T07:45:39.716Z,95431.05
2023-02-27T07:48:07.875Z,95435.05
2023-02-27T07:50:35.964Z,95438.41
2023-02-27T07:53:05.763Z,95441.16
2023-02-27T07:55:34.041Z,95445.98
2023-02-27T07:58:02.134Z,95449.10
2023-02-27T08:00:30.527Z,95451.39
2023-02-27T08:02:58.807Z,95456.55
2023-02-27T08:05:27.106Z,95456.33
2023-02-27T08:07:55.485Z,95457.35
2023-02-27T08:10:23.732Z,95460.52
2023-02-27T08:12:52.487Z,95464.16
2023-02-27T08:15:21.687Z,95463.40
2023-02-27T08:17:49.928Z,95468.77
2023-02-27T08:20:19.162Z,95476.82
2023-02-27T08:22:47.547Z,95482.88
2023-02-27T08:25:16.352Z,95490.61
2023-02-27T08:27:44.553Z,95492.33
2023-02-27T08:30:13.048Z,95494.08
2023-02-27T08:32:41.249Z,95500.79
2023-02-27T08:35:09.888Z,95502.27
2023-02-27T08:37:38.254Z,95509.35
2023-02-27T08:40:07.347Z,95513.02
2023-02-27T08:42:35.518Z,95512.41
2023-02-27T08:45:04.429Z,95518.66
2023-02-27T08:47:32.539Z,95526.02
2023-02-27T08:50:01.340Z,95530.23
2023-02-27T08:52:29.612Z,95533.84
2023-02-27T08:54:57.869Z,95539.46
2023-02-27T08:57:26.262Z,95547.33
2023-02-27T08:59:54.585Z,95554.58
2023-02-27T09:02:27.070Z,95555.05
2023-02-27T09:04:55.399Z,95564.65
2023-02-27T09:07:23.601Z,95566.20
2023-02-27T09:09:51.867Z,95564.88
2023-02-27T09:12:19.953Z,95565.83
2023-02-27T09:14:48.546Z,95560.88
2023-02-27T09:17:16.759Z,95558.46
2023-02-27T09:19:44.857Z,95553.70
2023-02-27T09:22:12.948Z,95560.11
2023-02-27T09:24:41.220Z,95564.72
2023-02-27T09:27:09.461Z,95566.20
2023-02-27T09:29:37.733Z,95563.65
2023-02-27T09:32:06.217Z,95562.31
2023-02-27T09:34:34.509Z,95566.94
2023-02-27T09:37:02.867Z,95568.81
2023-02-27T09:39:31.762Z,95572.21
2023-02-27T09:42:05.623Z,95582.83
2023-02-27T09:44:47.457Z,95585.14
2023-02-27T09:47:20.726Z,95589.48
2023-02-27T09:50:02.016Z,95598.39
2023-02-27T09:52:32.674Z,95598.83
2023-02-27T09:55:01.402Z,95606.16
2023-02-27T09:57:32.486Z,95611.35
2023-02-27T10:00:07.336Z,95607.86
2023-02-27T10:02:55.665Z,95611.23
2023-02-27T10:05:38.591Z,95610.42
2023-02-27T10:08:23.787Z,95610.13
2023-02-27T10:11:08.678Z,95614.39
2023-02-27T10:13:49.492Z,95616.54
2023-02-27T10:16:21.627Z,95614.02
2023-02-27T10:18:59.775Z,95618.02
2023-02-27T10:21:42.382Z,95624.74
2023-02-27T10:24:27.968Z,95632.23
2023-02-27T10:26:59.215Z,95634.89
2023-02-27T10:29:41.931Z,95632.84
2023-02-27T10:32:25.155Z,95634.59
2023-02-27T10:34:59.106Z,95643.06
2023-02-27T10:37:28.789Z,95641.65
2023-02-27T10:40:00.193Z,95643.17
2023-02-27T10:42:33.421Z,95648.13
2023-02-27T10:45:02.534Z,95651.90
2023-02-27T10:47:31.395Z,95663.79
2023-02-27T10:50:00.581Z,95666.97
2023-02-27T10:52:28.791Z,95666.59
2023-02-27T10:55:18.575Z,95672.22
2023-02-27T10:57:47.222Z,95674.60
2023-02-27T11:00:52.636Z,95681.01
2023-02-27T11:03:25.251Z,95683.17
2023-02-27T11:06:22.440Z,95681.31
2023-02-27T11:09:18.620Z,95683.37
2023-02-27T11:11:46.801Z,95681.56
2023-02-27T11:14:29.930Z,95677.81
2023-02-27T11:17:00.657Z,95681.33
2023-02-27T11:19:33.588Z,95687.70
2023-02-27T11:22:03.481Z,95695.11
2023-02-27T11:24:32.272Z,95701.45
2023-02-27T11:27:06.773Z,95704.32
2023-02-27T11:29:35.166Z,95710.00
2023-02-27T11:32:22.223Z,95710.52
2023-02-27T11:34:52.508Z,95712.92
2023-02-27T11:37:34.395Z,95706.35
2023-02-27T11:40:14.565Z,95710.73
2023-02-27T11:43:11.476Z,95711.08
2023-02-27T11:46:05.316Z,95713.94
2023-02-27T11:48:39.190Z,95722.04
2023-02-27T11:51:29.433Z,95724.94
2023-02-27T11:54:00.915Z,95729.48
2023-02-27T11:56:49.269Z,95732.18
2023-02-27T11:59:24.139Z,95730.08
2023-02-27T12:02:23.833Z,95726.05
2023-02-27T12:05:19.330Z,95734.48
2023-02-27T12:08:05.767Z,95743.61
2023-02-27T12:11:11.489Z,95753.63
2023-02-27T12:13:47.598Z,95756.46
2023-02-27T12:16:15.669Z,95761.04
2023-02-27T12:18:51.862Z,95769.99
2023-02-27T12:21:24.889Z,95773.44
2023-02-27T12:24:25.695Z,95771.41
2023-02-27T12:27:25.204Z,95773.81
2023-02-27T12:30:07.841Z,95772.01
2023-02-27T12:32:58.105Z,95768.27
2023-02-27T12:35:33.450Z,95766.66
2023-02-27T12:38:02.969Z,95773.75
2023-02-27T12:40:38.137Z,95781.69
2023-02-27T12:43:33.805Z,95791.86
2023-02-27T12:46:18.049Z,95803.80
2023-02-27T12:49:04.353Z,95809.19
2023-02-27T12:52:07.949Z,95814.48
2023-02-27T12:54:47.802Z,95816.56
2023-02-27T12:57:28.481Z,95824.65
2023-02-27T13:00:08.363Z,95832.41
2023-02-27T13:02:45.397Z,95829.20
2023-02-27T13:05:43.483Z,95830.17
2023-02-27T13:08:28.650Z,95841.46
2023-02-27T13:11:06.155Z,95842.71
2023-02-27T13:25:18.771Z,95842.39
2023-02-27T13:27:51.848Z,95855.98
2023-02-27T13:30:28.409Z,95859.50
2023-02-27T13:33:13.790Z,95862.38
2023-02-27T13:35:52.671Z,95858.21
2023-02-27T13:38:50.442Z,95861.77
2023-02-27T13:41:21.624Z,95864.80
2023-02-27T13:44:20.049Z,95861.85
2023-02-27T13:46:48.661Z,95867.16
2023-02-27T13:49:29.612Z,95868.31
2023-02-27T13:52:05.468Z,95876.63
2023-02-27T13:54:39.436Z,95880.20
2023-02-27T13:57:19.115Z,95885.49
2023-02-27T14:00:05.313Z,95888.15
2023-02-27T14:02:59.931Z,95891.52
2023-02-27T14:05:43.025Z,95898.84
2023-02-27T14:08:25.023Z,95894.63
2023-02-27T14:11:10.416Z,95903.13
2023-02-27T14:13:51.086Z,95904.42
2023-02-27T14:16:37.597Z,95903.65
2023-02-27T14:19:23.872Z,95905.73
2023-02-27T14:22:01.597Z,95915.36
2023-02-27T14:24:49.597Z,95925.05
2023-02-27T14:27:27.696Z,95935.71
2023-02-27T14:30:04.273Z,95942.00
2023-02-27T14:32:38.105Z,95942.34
2023-02-27T14:35:06.870Z,95940.42
2023-02-27T14:37:36.468Z,95942.21
2023-02-27T14:40:06.586Z,95942.20
2023-02-27T14:42:52.482Z,95948.11
2023-02-27T14:45:24.525Z,95944.89
2023-02-27T14:47:53.645Z,95951.93
2023-02-27T14:50:34.413Z,95954.16
2023-02-27T14:53:03.417Z,95955.36
2023-02-27T14:55:36.292Z,95957.15
2023-02-27T14:58:07.427Z,95959.23
2023-02-27T15:00:50.588Z,95959.79
2023-02-27T15:03:22.826Z,95966.15
2023-02-27T15:05:53.788Z,95976.42
2023-02-27T15:08:36.075Z,95977.91
2023-02-27T15:11:04.659Z,95981.89
2023-02-27T15:13:36.223Z,95984.80
2023-02-27T15:16:26.182Z,95984.03
2023-02-27T15:18:58.327Z,95984.98
2023-02-27T15:32:50.071Z,95988.80
2023-02-27T15:35:27.115Z,95996.77
2023-02-27T15:37:57.917Z,96004.05
2023-02-27T15:40:33.109Z,96009.09
2023-02-27T15:43:01.937Z,96011.13
2023-02-27T15:45:34.214Z,96017.23
2023-02-27T15:48:04.228Z,96023.48
2023-02-27T15:50:38.648Z,96029.23
2023-02-27T15:53:17.165Z,96025.56
2023-02-27T15:55:51.200Z,96031.59
2023-02-27T15:58:35.065Z,96037.84
2023-02-27T16:01:13.211Z,96038.40
2023-02-27T16:03:48.046Z,96036.95
2023-02-27T16:06:16.077Z,96040.88
2023-02-27T16:08:50.659Z,96049.05
2023-02-27T16:11:24.017Z,96057.72
2023-02-27T16:13:53.374Z,96063.02
2023-02-27T16:16:21.461Z,96062.34
2023-02-27T16:18:52.567Z,96064.45
2023-02-27T16:21:23.986Z,96067.30
2023-02-27T16:23:54.083Z,96067.73
2023-02-27T16:26:25.009Z,96077.48
2023-02-27T16:29:03.867Z,96083.02
2023-02-27T16:31:40.893Z,96089.90
2023-02-27T16:34:45.610Z,96091.63
2023-02-27T16:37:30.905Z,96095.02
2023-02-27T16:39:59.161Z,96100.31
2023-02-27T16:42:27.309Z,96103.48
2023-02-27T16:44:55.393Z,96105.66
2023-02-27T16:47:23.484Z,96110.98
2023-02-27T16:49:51.726Z,96108.19
2023-02-27T16:52:23.135Z,96110.48
2023-02-27T16:54:51.415Z,96113.13
2023-02-27T16:57:19.582Z,96118.38
2023-02-27T16:59:47.904Z,96122.44
2023-02-27T17:02:16.468Z,96126.21
2023-02-27T17:04:46.900Z,96132.56
2023-02-27T17:07:17.310Z,96134.35
2023-02-27T17:09:46.916Z,96133.80
2023-02-27T17:12:15.053Z,96138.89
2023-02-27T17:14:43.297Z,96145.23
2023-02-27T17:17:11.672Z,96152.77
2023-02-27T17:19:39.968Z,96153.70
2023-02-27T17:22:08.277Z,96153.71
2023-02-27T17:24:37.522Z,96159.26
2023-02-27T17:27:05.699Z,96162.21
2023-02-27T17:29:33.846Z,96169.52
2023-02-27T17:32:01.981Z,96162.92
2023-02-27T17:34:30.176Z,96163.50
2023-02-27T17:36:58.224Z,96155.84
2023-02-27T17:39:26.533Z,96169.27
2023-02-27T17:41:54.847Z,96166.95
2023-02-27T17:44:22.913Z,96162.61
2023-02-27T17:46:51.088Z,96160.27
2023-02-27T17:49:19.148Z,96165.16
2023-02-27T17:51:47.436Z,96163.70
2023-02-27T17:54:15.711Z,96168.33
2023-02-27T17:56:43.908Z,96173.99
2023-02-27T17:59:12.005Z,96175.44
2023-02-27T18:01:40.151Z,96179.71
2023-02-27T18:04:11.407Z,96180.75
2023-02-27T18:06:39.618Z,96186.02
2023-02-27T18:09:07.716Z,96180.34
2023-02-27T18:11:37.630Z,96172.59
2023-02-27T18:14:05.808Z,96180.09
2023-02-27T18:16:33.981Z,96184.27
2023-02-27T18:19:09.842Z,96186.67
2023-02-27T18:21:38.300Z,96188.70
2023-02-27T18:24:06.995Z,96194.58
2023-02-27T18:26:35.438Z,96195.64
2023-02-27T18:29:10.310Z,96191.94
2023-02-27T18:31:46.414Z,96195.67
2023-02-27T18:34:14.638Z,96192.33
2023-02-27T18:36:42.795Z,96193.17
2023-02-27T18:39:11.704Z,96196.48
2023-02-27T18:41:40.099Z,96201.66
2023-02-27T18:44:09.010Z,96203.56
2023-02-27T18:46:38.474Z,96203.37
2023-02-27T18:49:06.885Z,96199.49
2023-02-27T18:51:35.232Z,96197.19
2023-02-27T18:54:05.319Z,96198.92
2023-02-27T18:56:33.443Z,96200.60
2023-02-27T18:59:02.197Z,96210.16
2023-02-27T19:01:33.298Z,96214.77
2023-02-27T19:04:05.516Z,96216.90
2023-02-27T19:06:41.039Z,96224.48
2023-02-27T19:09:12.679Z,96226.56
2023-02-27T19:11:42.126Z,96225.36
2023-02-27T19:14:13.583Z,96226.77
2023-02-27T19:16:42.449Z,96233.02
2023-02-27T19:19:11.883Z,96236.17
2023-02-27T19:21:40.362Z,96233.81
2023-02-27T19:24:11.198Z,96237.52
2023-02-27T19:26:40.519Z,96236.95
2023-02-27T19:29:09.000Z,96237.66
2023-02-27T19:31:37.125Z,96240.61
2023-02-27T19:34:05.926Z,96240.07
2023-02-27T19:36:34.940Z,96245.22
2023-02-27T19:39:03.939Z,96248.30
2023-02-27T19:41:33.503Z,96244.31
2023-02-27T19:44:02.104Z,96248.45
2023-02-27T19:46:33.861Z,96245.66
2023-02-27T19:49:04.978Z,96247.10
2023-02-27T19:51:33.294Z,96251.65
2023-02-27T19:54:01.358Z,96247.83
2023-02-27T19:56:30.298Z,96246.42
2023-02-27T19:59:00.712Z,96248.60
2023-02-27T20:01:34.820Z,96250.28
2023-02-27T20:04:03.579Z,96250.87
2023-02-27T20:06:42.020Z,96255.29
2023-02-27T20:09:15.607Z,96260.46
2023-02-27T20:11:44.676Z,96255.25
2023-02-27T20:14:14.490Z,96255.73
2023-02-27T20:16:42.961Z,96263.95
2023-02-27T20:19:14.981Z,96267.73
2023-02-27T20:21:43.610Z,96270.20
2023-02-27T20:24:14.366Z,96275.17
2023-02-27T20:26:48.485Z,96271.06
2023-02-27T20:29:20.281Z,96264.44
2023-02-27T20:31:50.230Z,96274.28
2023-02-27T20:34:26.469Z,96272.61
2023-02-27T20:36:56.089Z,96274.19
2023-02-27T20:39:24.815Z,96269.02
2023-02-27T20:41:53.180Z,96262.69
2023-02-27T20:44:21.344Z,96260.57
2023-02-27T20:46:49.844Z,96259.48
2023-02-27T20:49:18.713Z,96258.23
2023-02-27T20:51:47.092Z,96253.71
2023-02-27T20:54:20.637Z,96251.45
2023-02-27T20:56:54.360Z,96255.35
2023-02-27T20:59:27.416Z,96247.55
2023-02-27T21:01:55.730Z,96248.44
2023-02-27T21:04:42.482Z,96250.48
2023-02-27T21:07:12.844Z,96249.19
2023-02-27T21:09:41.657Z,96248.85
2023-02-27T21:12:09.712Z,96251.55
2023-02-27T21:14:37.878Z,96253.80
2023-02-27T21:17:06.547Z,96265.35
2023-02-27T21:19:34.886Z,96275.55
2023-02-27T21:22:03.628Z,96277.64
2023-02-27T21:24:32.357Z,96276.88
2023-02-27T21:27:00.432Z,96280.30
2023-02-27T21:29:28.608Z,96281.92
2023-02-27T21:31:56.809Z,96281.53
2023-02-27T21:34:26.998Z,96278.36
2023-02-27T21:36:56.093Z,96269.48
2023-02-27T21:39:28.458Z,96267.70
2023-02-27T21:41:59.649Z,96265.31
2023-02-27T21:44:29.888Z,96263.95
2023-02-27T21:46:58.412Z,96265.63
2023-02-27T21:49:28.657Z,96268.86
2023-02-27T21:51:57.331Z,96265.05
2023-02-27T21:54:25.389Z,96276.54
2023-02-27T21:56:53.971Z,96295.50
2023-02-27T21:59:22.228Z,96295.52
2023-02-27T22:01:50.464Z,96291.60
2023-02-27T22:04:20.199Z,96290.66
2023-02-27T22:06:50.453Z,96293.49
2023-02-27T22:09:19.648Z,96300.25
2023-02-27T22:11:48.744Z,96308.98
2023-02-27T22:14:17.223Z,96305.35
2023-02-27T22:16:45.614Z,96306.50
2023-02-27T22:19:20.152Z,96309.02
2023-02-27T22:21:49.118Z,96299.73
2023-02-27T22:24:17.408Z,96294.87
2023-02-27T22:26:45.938Z,96298.00
2023-02-27T22:29:14.367Z,96304.34
2023-02-27T22:31:42.656Z,96302.70
2023-02-27T22:34:15.218Z,96308.60
2023-02-27T22:36:43.796Z,96305.66
2023-02-27T22:39:12.988Z,96310.88
2023-02-27T22:41:42.100Z,96308.97
2023-02-27T22:44:14.187Z,96312.21
2023-02-27T22:46:48.306Z,96311.38
2023-02-27T22:49:21.876Z,96322.77
2023-02-27T22:51:52.158Z,96323.21
2023-02-27T22:54:22.664Z,96321.98
2023-02-27T22:56:53.210Z,96324.18
2023-02-27T22:59:21.935Z,96314.55
2023-02-27T23:01:50.747Z,96307.64
2023-02-27T23:04:19.096Z,96302.63
2023-02-27T23:06:47.929Z,96304.34
2023-02-27T23:09:19.004Z,96307.16
2023-02-27T23:11:47.403Z,96309.99
2023-02-27T23:14:15.820Z,96308.27
2023-02-27T23:16:47.160Z,96315.82
2023-02-27T23:19:18.585Z,96318.48
2023-02-27T23:21:47.599Z,96320.99
2023-02-27T23:24:18.006Z,96317.29
2023-02-27T23:26:51.529Z,96315.98
2023-02-27T23:29:20.177Z,96314.53
2023-02-27T23:31:48.315Z,96319.02
2023-02-27T23:34:16.832Z,96316.95
2023-02-27T23:36:45.209Z,96321.57
2023-02-27T23:39:13.292Z,96318.48
2023-02-27T23:41:41.397Z,96314.14
2023-02-27T23:44:09.418Z,96310.12
2023-02-27T23:46:38.321Z,96310.85
2023-02-27T23:49:06.592Z,96311.69
2023-02-27T23:51:34.971Z,96328.27
2023-02-27T23:54:03.673Z,96333.98
2023-02-27T23:56:31.849Z,96338.09
2023-02-27T23:59:04.342Z,96342.00
